sensor_id;sensor_type;location;lat;lon;timestamp;P1;durP1;ratioP1;P2;durP2;ratioP2
21270;SDS011;10795;50.796;3.860;2022-09-21T00:02:05;5.03;;;4.32;;
21270;SDS011;10795;50.796;3.860;2022-09-21T00:04:31;7.95;;;4.60;;
21270;SDS011;10795;50.796;3.860;2022-09-21T00:06:57;7.80;;;5.13;;
21270;SDS011;10795;50.796;3.860;2022-09-21T00:09:23;8.85;;;4.88;;
21270;SDS011;10795;50.796;3.860;2022-09-21T00:11:52;5.65;;;5.03;;
21270;SDS011;10795;50.796;3.860;2022-09-21T00:14:18;8.27;;;4.72;;
21270;SDS011;10795;50.796;3.860;2022-09-21T00:16:44;7.28;;;4.78;;
21270;SDS011;10795;50.796;3.860;2022-09-21T00:19:10;6.43;;;4.38;;
21270;SDS011;10795;50.796;3.860;2022-09-21T00:21:36;7.50;;;4.05;;
21270;SDS011;10795;50.796;3.860;2022-09-21T00:24:03;4.25;;;3.58;;
21270;SDS011;10795;50.796;3.860;2022-09-21T00:26:30;3.58;;;2.53;;
21270;SDS011;10795;50.796;3.860;2022-09-21T00:28:57;4.07;;;3.40;;
21270;SDS011;10795;50.796;3.860;2022-09-21T00:31:25;5.30;;;3.33;;
21270;SDS011;10795;50.796;3.860;2022-09-21T00:33:52;4.65;;;2.67;;
21270;SDS011;10795;50.796;3.860;2022-09-21T00:36:19;7.32;;;3.72;;
21270;SDS011;10795;50.796;3.860;2022-09-21T00:38:51;5.75;;;3.90;;
21270;SDS011;10795;50.796;3.860;2022-09-21T00:41:19;4.30;;;3.90;;
21270;SDS011;10795;50.796;3.860;2022-09-21T00:43:46;6.88;;;3.97;;
21270;SDS011;10795;50.796;3.860;2022-09-21T00:46:17;6.13;;;4.70;;
21270;SDS011;10795;50.796;3.860;2022-09-21T00:48:50;8.43;;;4.32;;
21270;SDS011;10795;50.796;3.860;2022-09-21T00:51:16;6.40;;;5.22;;
21270;SDS011;10795;50.796;3.860;2022-09-21T00:53:42;9.15;;;4.97;;
21270;SDS011;10795;50.796;3.860;2022-09-21T00:56:09;9.25;;;4.78;;
21270;SDS011;10795;50.796;3.860;2022-09-21T00:58:38;9.35;;;4.95;;
21270;SDS011;10795;50.796;3.860;2022-09-21T01:01:09;7.57;;;5.20;;
21270;SDS011;10795;50.796;3.860;2022-09-21T01:03:39;8.35;;;5.50;;
21270;SDS011;10795;50.796;3.860;2022-09-21T01:06:10;7.50;;;5.20;;
21270;SDS011;10795;50.796;3.860;2022-09-21T01:08:41;5.95;;;5.10;;
21270;SDS011;10795;50.796;3.860;2022-09-21T01:13:50;5.82;;;5.13;;
21270;SDS011;10795;50.796;3.860;2022-09-21T01:28:12;5.68;;;3.65;;
21270;SDS011;10795;50.796;3.860;2022-09-21T01:31:02;4.63;;;3.33;;
21270;SDS011;10795;50.796;3.860;2022-09-21T01:33:33;3.00;;;2.33;;
21270;SDS011;10795;50.796;3.860;2022-09-21T01:36:08;5.30;;;3.60;;
21270;SDS011;10795;50.796;3.860;2022-09-21T01:38:42;7.55;;;4.50;;
21270;SDS011;10795;50.796;3.860;2022-09-21T01:41:15;7.85;;;4.78;;
21270;SDS011;10795;50.796;3.860;2022-09-21T01:43:45;8.30;;;5.28;;
21270;SDS011;10795;50.796;3.860;2022-09-21T01:46:16;7.82;;;5.38;;
21270;SDS011;10795;50.796;3.860;2022-09-21T01:48:45;10.05;;;5.40;;
21270;SDS011;10795;50.796;3.860;2022-09-21T01:51:14;7.75;;;5.32;;
21270;SDS011;10795;50.796;3.860;2022-09-21T01:53:47;8.70;;;5.47;;
21270;SDS011;10795;50.796;3.860;2022-09-21T01:56:26;8.32;;;5.75;;
21270;SDS011;10795;50.796;3.860;2022-09-21T01:59:06;8.30;;;5.22;;
21270;SDS011;10795;50.796;3.860;2022-09-21T02:01:44;8.00;;;5.20;;
21270;SDS011;10795;50.796;3.860;2022-09-21T02:04:32;6.70;;;4.90;;
21270;SDS011;10795;50.796;3.860;2022-09-21T02:06:59;6.47;;;3.85;;
21270;SDS011;10795;50.796;3.860;2022-09-21T02:09:25;6.88;;;3.40;;
21270;SDS011;10795;50.796;3.860;2022-09-21T02:11:51;4.63;;;3.38;;
21270;SDS011;10795;50.796;3.860;2022-09-21T02:14:21;8.60;;;4.55;;
21270;SDS011;10795;50.796;3.860;2022-09-21T02:16:55;9.40;;;4.22;;
21270;SDS011;10795;50.796;3.860;2022-09-21T02:24:48;10.73;;;3.63;;
21270;SDS011;10795;50.796;3.860;2022-09-21T02:30:06;8.45;;;3.70;;
21270;SDS011;10795;50.796;3.860;2022-09-21T02:35:31;3.92;;;3.50;;
21270;SDS011;10795;50.796;3.860;2022-09-21T02:40:39;6.65;;;4.28;;
21270;SDS011;10795;50.796;3.860;2022-09-21T02:43:24;7.03;;;4.18;;
21270;SDS011;10795;50.796;3.860;2022-09-21T02:45:56;8.20;;;4.00;;
21270;SDS011;10795;50.796;3.860;2022-09-21T02:48:33;9.25;;;3.97;;
21270;SDS011;10795;50.796;3.860;2022-09-21T02:51:11;7.45;;;3.70;;
21270;SDS011;10795;50.796;3.860;2022-09-21T02:53:41;4.13;;;3.63;;
21270;SDS011;10795;50.796;3.860;2022-09-21T02:56:08;6.85;;;3.88;;
21270;SDS011;10795;50.796;3.860;2022-09-21T02:58:40;5.05;;;3.97;;
21270;SDS011;10795;50.796;3.860;2022-09-21T03:01:21;6.63;;;3.88;;
21270;SDS011;10795;50.796;3.860;2022-09-21T03:03:48;7.85;;;3.55;;
21270;SDS011;10795;50.796;3.860;2022-09-21T03:06:14;5.18;;;3.58;;
21270;SDS011;10795;50.796;3.860;2022-09-21T03:08:40;5.40;;;3.42;;
21270;SDS011;10795;50.796;3.860;2022-09-21T03:11:06;7.93;;;3.80;;
21270;SDS011;10795;50.796;3.860;2022-09-21T03:13:31;7.03;;;4.53;;
21270;SDS011;10795;50.796;3.860;2022-09-21T03:16:02;5.35;;;3.13;;
21270;SDS011;10795;50.796;3.860;2022-09-21T03:18:31;7.15;;;3.75;;
21270;SDS011;10795;50.796;3.860;2022-09-21T03:20:57;5.72;;;4.03;;
21270;SDS011;10795;50.796;3.860;2022-09-21T03:23:23;8.00;;;4.68;;
21270;SDS011;10795;50.796;3.860;2022-09-21T03:25:49;6.25;;;4.30;;
21270;SDS011;10795;50.796;3.860;2022-09-21T03:28:16;5.75;;;3.90;;
21270;SDS011;10795;50.796;3.860;2022-09-21T03:30:43;6.38;;;3.90;;
21270;SDS011;10795;50.796;3.860;2022-09-21T03:33:09;6.50;;;4.03;;
21270;SDS011;10795;50.796;3.860;2022-09-21T03:35:37;4.80;;;4.30;;
21270;SDS011;10795;50.796;3.860;2022-09-21T03:38:03;5.13;;;4.60;;
21270;SDS011;10795;50.796;3.860;2022-09-21T03:40:29;7.18;;;5.15;;
21270;SDS011;10795;50.796;3.860;2022-09-21T03:42:56;6.95;;;4.93;;
21270;SDS011;10795;50.796;3.860;2022-09-21T03:45:22;8.25;;;4.40;;
21270;SDS011;10795;50.796;3.860;2022-09-21T03:47:48;9.07;;;5.38;;
21270;SDS011;10795;50.796;3.860;2022-09-21T03:50:14;7.45;;;5.68;;
21270;SDS011;10795;50.796;3.860;2022-09-21T03:52:40;7.60;;;5.22;;
21270;SDS011;10795;50.796;3.860;2022-09-21T03:55:07;4.85;;;4.35;;
21270;SDS011;10795;50.796;3.860;2022-09-21T03:57:34;12.57;;;4.90;;
21270;SDS011;10795;50.796;3.860;2022-09-21T04:00:04;4.85;;;4.25;;
21270;SDS011;10795;50.796;3.860;2022-09-21T04:02:33;9.77;;;4.75;;
21270;SDS011;10795;50.796;3.860;2022-09-21T04:04:59;5.97;;;4.38;;
21270;SDS011;10795;50.796;3.860;2022-09-21T04:07:29;11.07;;;5.13;;
21270;SDS011;10795;50.796;3.860;2022-09-21T04:09:57;8.60;;;5.30;;
21270;SDS011;10795;50.796;3.860;2022-09-21T04:12:23;6.07;;;4.72;;
21270;SDS011;10795;50.796;3.860;2022-09-21T04:14:49;8.68;;;5.20;;
21270;SDS011;10795;50.796;3.860;2022-09-21T04:17:15;7.93;;;5.05;;
21270;SDS011;10795;50.796;3.860;2022-09-21T04:19:41;8.32;;;5.38;;
21270;SDS011;10795;50.796;3.860;2022-09-21T04:22:07;5.07;;;3.50;;
21270;SDS011;10795;50.796;3.860;2022-09-21T04:24:32;5.70;;;3.03;;
21270;SDS011;10795;50.796;3.860;2022-09-21T04:26:58;4.47;;;2.70;;
21270;SDS011;10795;50.796;3.860;2022-09-21T04:29:24;4.13;;;2.80;;
21270;SDS011;10795;50.796;3.860;2022-09-21T04:31:49;6.88;;;2.88;;
21270;SDS011;10795;50.796;3.860;2022-09-21T04:34:15;3.90;;;3.35;;
21270;SDS011;10795;50.796;3.860;2022-09-21T04:36:41;7.50;;;3.40;;
21270;SDS011;10795;50.796;3.860;2022-09-21T04:39:07;6.05;;;3.60;;
21270;SDS011;10795;50.796;3.860;2022-09-21T04:41:33;5.70;;;3.05;;
21270;SDS011;10795;50.796;3.860;2022-09-21T04:43:59;5.57;;;2.60;;
21270;SDS011;10795;50.796;3.860;2022-09-21T04:46:25;3.47;;;3.10;;
21270;SDS011;10795;50.796;3.860;2022-09-21T04:48:51;8.00;;;3.67;;
21270;SDS011;10795;50.796;3.860;2022-09-21T04:51:17;4.75;;;3.30;;
21270;SDS011;10795;50.796;3.860;2022-09-21T04:53:43;9.18;;;5.03;;
21270;SDS011;10795;50.796;3.860;2022-09-21T04:56:09;8.27;;;5.30;;
21270;SDS011;10795;50.796;3.860;2022-09-21T04:58:37;7.95;;;5.05;;
21270;SDS011;10795;50.796;3.860;2022-09-21T05:01:03;9.25;;;4.50;;
21270;SDS011;10795;50.796;3.860;2022-09-21T05:03:30;8.73;;;4.85;;
21270;SDS011;10795;50.796;3.860;2022-09-21T05:05:56;7.45;;;5.20;;
21270;SDS011;10795;50.796;3.860;2022-09-21T05:08:23;10.20;;;4.72;;
21270;SDS011;10795;50.796;3.860;2022-09-21T05:11:10;5.55;;;4.65;;
21270;SDS011;10795;50.796;3.860;2022-09-21T05:13:40;11.23;;;4.78;;
21270;SDS011;10795;50.796;3.860;2022-09-21T05:16:07;9.90;;;4.70;;
21270;SDS011;10795;50.796;3.860;2022-09-21T05:18:33;5.70;;;4.88;;
21270;SDS011;10795;50.796;3.860;2022-09-21T05:21:00;5.43;;;4.35;;
21270;SDS011;10795;50.796;3.860;2022-09-21T05:23:27;6.30;;;4.40;;
21270;SDS011;10795;50.796;3.860;2022-09-21T05:25:55;7.20;;;5.10;;
21270;SDS011;10795;50.796;3.860;2022-09-21T05:28:22;6.60;;;4.80;;
21270;SDS011;10795;50.796;3.860;2022-09-21T05:30:53;5.68;;;4.10;;
21270;SDS011;10795;50.796;3.860;2022-09-21T05:33:27;6.05;;;3.70;;
21270;SDS011;10795;50.796;3.860;2022-09-21T05:36:10;4.95;;;4.00;;
21270;SDS011;10795;50.796;3.860;2022-09-21T05:39:03;4.47;;;3.22;;
21270;SDS011;10795;50.796;3.860;2022-09-21T05:41:29;4.88;;;4.40;;
21270;SDS011;10795;50.796;3.860;2022-09-21T05:43:55;8.52;;;5.28;;
21270;SDS011;10795;50.796;3.860;2022-09-21T05:46:30;6.38;;;5.45;;
21270;SDS011;10795;50.796;3.860;2022-09-21T05:55:19;6.95;;;4.60;;
21270;SDS011;10795;50.796;3.860;2022-09-21T06:03:28;10.30;;;5.63;;
21270;SDS011;10795;50.796;3.860;2022-09-21T06:05:55;10.80;;;5.88;;
21270;SDS011;10795;50.796;3.860;2022-09-21T06:08:22;9.30;;;5.30;;
21270;SDS011;10795;50.796;3.860;2022-09-21T06:10:48;5.32;;;4.78;;
21270;SDS011;10795;50.796;3.860;2022-09-21T06:13:15;8.50;;;4.70;;
21270;SDS011;10795;50.796;3.860;2022-09-21T06:15:41;5.18;;;4.20;;
21270;SDS011;10795;50.796;3.860;2022-09-21T06:18:07;6.00;;;3.90;;
21270;SDS011;10795;50.796;3.860;2022-09-21T06:20:33;5.30;;;3.55;;
21270;SDS011;10795;50.796;3.860;2022-09-21T06:23:03;5.57;;;3.20;;
21270;SDS011;10795;50.796;3.860;2022-09-21T06:25:30;3.58;;;3.25;;
21270;SDS011;10795;50.796;3.860;2022-09-21T06:28:00;4.15;;;3.30;;
21270;SDS011;10795;50.796;3.860;2022-09-21T06:30:28;6.25;;;2.70;;
21270;SDS011;10795;50.796;3.860;2022-09-21T06:32:57;6.43;;;3.88;;
21270;SDS011;10795;50.796;3.860;2022-09-21T06:35:25;2.22;;;1.98;;
21270;SDS011;10795;50.796;3.860;2022-09-21T06:37:51;1.90;;;1.70;;
21270;SDS011;10795;50.796;3.860;2022-09-21T06:40:21;5.80;;;3.72;;
21270;SDS011;10795;50.796;3.860;2022-09-21T06:42:46;9.68;;;6.38;;
21270;SDS011;10795;50.796;3.860;2022-09-21T06:45:12;13.25;;;7.95;;
21270;SDS011;10795;50.796;3.860;2022-09-21T06:47:38;10.95;;;6.75;;
21270;SDS011;10795;50.796;3.860;2022-09-21T06:50:04;10.27;;;6.85;;
21270;SDS011;10795;50.796;3.860;2022-09-21T06:52:30;16.30;;;6.78;;
21270;SDS011;10795;50.796;3.860;2022-09-21T06:54:55;14.35;;;6.78;;
21270;SDS011;10795;50.796;3.860;2022-09-21T06:57:21;35.92;;;9.05;;
21270;SDS011;10795;50.796;3.860;2022-09-21T06:59:48;42.20;;;10.07;;
21270;SDS011;10795;50.796;3.860;2022-09-21T07:02:13;47.95;;;10.35;;
21270;SDS011;10795;50.796;3.860;2022-09-21T07:04:40;27.80;;;9.15;;
21270;SDS011;10795;50.796;3.860;2022-09-21T07:07:05;66.20;;;10.88;;
21270;SDS011;10795;50.796;3.860;2022-09-21T07:09:31;59.08;;;11.55;;
21270;SDS011;10795;50.796;3.860;2022-09-21T07:11:57;51.60;;;10.35;;
21270;SDS011;10795;50.796;3.860;2022-09-21T07:14:23;16.20;;;5.28;;
21270;SDS011;10795;50.796;3.860;2022-09-21T07:16:49;43.40;;;9.85;;
21270;SDS011;10795;50.796;3.860;2022-09-21T07:19:16;15.80;;;7.63;;
21270;SDS011;10795;50.796;3.860;2022-09-21T07:21:43;29.83;;;7.95;;
21270;SDS011;10795;50.796;3.860;2022-09-21T07:24:09;33.92;;;9.38;;
21270;SDS011;10795;50.796;3.860;2022-09-21T07:26:35;32.72;;;9.75;;
21270;SDS011;10795;50.796;3.860;2022-09-21T07:29:01;21.60;;;7.15;;
21270;SDS011;10795;50.796;3.860;2022-09-21T07:31:27;27.20;;;9.07;;
21270;SDS011;10795;50.796;3.860;2022-09-21T07:33:55;13.10;;;6.68;;
21270;SDS011;10795;50.796;3.860;2022-09-21T07:36:24;28.65;;;8.77;;
21270;SDS011;10795;50.796;3.860;2022-09-21T07:38:50;14.32;;;8.43;;
21270;SDS011;10795;50.796;3.860;2022-09-21T07:41:18;15.05;;;9.30;;
21270;SDS011;10795;50.796;3.860;2022-09-21T07:43:44;12.27;;;9.35;;
21270;SDS011;10795;50.796;3.860;2022-09-21T07:46:11;18.92;;;11.02;;
21270;SDS011;10795;50.796;3.860;2022-09-21T07:48:39;17.88;;;10.65;;
21270;SDS011;10795;50.796;3.860;2022-09-21T07:51:06;13.77;;;10.60;;
21270;SDS011;10795;50.796;3.860;2022-09-21T07:53:34;10.60;;;8.23;;
21270;SDS011;10795;50.796;3.860;2022-09-21T07:56:02;18.10;;;10.55;;
21270;SDS011;10795;50.796;3.860;2022-09-21T07:58:29;16.65;;;10.65;;
21270;SDS011;10795;50.796;3.860;2022-09-21T08:01:13;14.57;;;11.23;;
21270;SDS011;10795;50.796;3.860;2022-09-21T08:03:39;16.05;;;11.57;;
21270;SDS011;10795;50.796;3.860;2022-09-21T08:06:05;6.60;;;5.22;;
21270;SDS011;10795;50.796;3.860;2022-09-21T08:08:31;13.20;;;10.57;;
21270;SDS011;10795;50.796;3.860;2022-09-21T08:11:01;14.88;;;11.98;;
21270;SDS011;10795;50.796;3.860;2022-09-21T08:13:30;20.23;;;12.73;;
21270;SDS011;10795;50.796;3.860;2022-09-21T08:15:57;10.30;;;6.93;;
21270;SDS011;10795;50.796;3.860;2022-09-21T08:18:24;9.00;;;5.05;;
21270;SDS011;10795;50.796;3.860;2022-09-21T08:20:53;8.70;;;6.65;;
21270;SDS011;10795;50.796;3.860;2022-09-21T08:25:45;11.68;;;8.73;;
21270;SDS011;10795;50.796;3.860;2022-09-21T08:28:12;17.58;;;12.38;;
21270;SDS011;10795;50.796;3.860;2022-09-21T08:30:39;8.45;;;6.30;;
21270;SDS011;10795;50.796;3.860;2022-09-21T08:33:05;19.92;;;11.40;;
21270;SDS011;10795;50.796;3.860;2022-09-21T08:35:32;16.23;;;10.95;;
21270;SDS011;10795;50.796;3.860;2022-09-21T08:37:58;15.43;;;10.50;;
21270;SDS011;10795;50.796;3.860;2022-09-21T08:40:24;8.75;;;7.18;;
21270;SDS011;10795;50.796;3.860;2022-09-21T08:42:53;18.38;;;11.25;;
21270;SDS011;10795;50.796;3.860;2022-09-21T08:45:20;15.68;;;9.32;;
21270;SDS011;10795;50.796;3.860;2022-09-21T08:50:22;10.02;;;7.50;;
21270;SDS011;10795;50.796;3.860;2022-09-21T08:52:51;4.88;;;3.60;;
21270;SDS011;10795;50.796;3.860;2022-09-21T08:55:24;13.48;;;9.82;;
21270;SDS011;10795;50.796;3.860;2022-09-21T08:57:50;7.07;;;5.57;;
21270;SDS011;10795;50.796;3.860;2022-09-21T09:00:17;6.05;;;4.45;;
21270;SDS011;10795;50.796;3.860;2022-09-21T09:05:22;5.53;;;2.50;;
21270;SDS011;10795;50.796;3.860;2022-09-21T09:10:55;12.85;;;10.07;;
21270;SDS011;10795;50.796;3.860;2022-09-21T09:18:57;6.50;;;3.65;;
21270;SDS011;10795;50.796;3.860;2022-09-21T09:21:34;13.10;;;8.38;;
21270;SDS011;10795;50.796;3.860;2022-09-21T09:24:10;9.27;;;6.60;;
21270;SDS011;10795;50.796;3.860;2022-09-21T09:27:34;5.22;;;3.95;;
21270;SDS011;10795;50.796;3.860;2022-09-21T09:32:40;6.80;;;4.30;;
21270;SDS011;10795;50.796;3.860;2022-09-21T09:41:18;4.72;;;3.72;;
21270;SDS011;10795;50.796;3.860;2022-09-21T09:49:08;5.95;;;2.40;;
21270;SDS011;10795;50.796;3.860;2022-09-21T09:51:38;6.63;;;2.65;;
21270;SDS011;10795;50.796;3.860;2022-09-21T09:54:04;3.20;;;2.25;;
21270;SDS011;10795;50.796;3.860;2022-09-21T09:56:37;1.95;;;1.30;;
21270;SDS011;10795;50.796;3.860;2022-09-21T09:59:03;1.75;;;1.15;;
21270;SDS011;10795;50.796;3.860;2022-09-21T10:01:37;7.28;;;3.50;;
21270;SDS011;10795;50.796;3.860;2022-09-21T10:04:09;3.95;;;1.63;;
21270;SDS011;10795;50.796;3.860;2022-09-21T10:06:36;2.38;;;0.98;;
21270;SDS011;10795;50.796;3.860;2022-09-21T10:09:24;5.38;;;3.60;;
21270;SDS011;10795;50.796;3.860;2022-09-21T10:11:48;4.07;;;2.17;;
21270;SDS011;10795;50.796;3.860;2022-09-21T10:14:25;2.33;;;1.85;;
21270;SDS011;10795;50.796;3.860;2022-09-21T10:16:55;3.08;;;1.48;;
21270;SDS011;10795;50.796;3.860;2022-09-21T10:19:28;1.73;;;0.98;;
21270;SDS011;10795;50.796;3.860;2022-09-21T10:21:55;4.40;;;2.55;;
21270;SDS011;10795;50.796;3.860;2022-09-21T10:24:24;4.95;;;2.85;;
21270;SDS011;10795;50.796;3.860;2022-09-21T10:27:05;5.90;;;3.13;;
21270;SDS011;10795;50.796;3.860;2022-09-21T10:29:43;7.70;;;2.70;;
21270;SDS011;10795;50.796;3.860;2022-09-21T10:37:30;6.47;;;2.83;;
21270;SDS011;10795;50.796;3.860;2022-09-21T10:40:24;7.10;;;3.00;;
21270;SDS011;10795;50.796;3.860;2022-09-21T10:42:53;3.70;;;1.27;;
21270;SDS011;10795;50.796;3.860;2022-09-21T10:45:22;2.78;;;1.48;;
21270;SDS011;10795;50.796;3.860;2022-09-21T10:52:50;2.88;;;1.10;;
21270;SDS011;10795;50.796;3.860;2022-09-21T10:55:55;5.45;;;1.50;;
21270;SDS011;10795;50.796;3.860;2022-09-21T10:58:30;2.25;;;0.70;;
21270;SDS011;10795;50.796;3.860;2022-09-21T11:01:08;4.63;;;1.95;;
21270;SDS011;10795;50.796;3.860;2022-09-21T11:06:23;3.72;;;1.45;;
21270;SDS011;10795;50.796;3.860;2022-09-21T11:14:09;5.28;;;2.30;;
21270;SDS011;10795;50.796;3.860;2022-09-21T11:17:01;4.20;;;1.95;;
21270;SDS011;10795;50.796;3.860;2022-09-21T11:27:45;2.63;;;1.05;;
21270;SDS011;10795;50.796;3.860;2022-09-21T11:30:17;5.97;;;1.30;;
21270;SDS011;10795;50.796;3.860;2022-09-21T11:32:58;6.10;;;1.10;;
21270;SDS011;10795;50.796;3.860;2022-09-21T11:35:41;7.85;;;1.80;;
21270;SDS011;10795;50.796;3.860;2022-09-21T11:52:05;5.35;;;1.48;;
21270;SDS011;10795;50.796;3.860;2022-09-21T11:54:54;3.13;;;0.85;;
21270;SDS011;10795;50.796;3.860;2022-09-21T11:57:26;3.65;;;0.90;;
21270;SDS011;10795;50.796;3.860;2022-09-21T12:07:57;2.63;;;0.82;;
21270;SDS011;10795;50.796;3.860;2022-09-21T12:13:20;1.45;;;0.70;;
21270;SDS011;10795;50.796;3.860;2022-09-21T12:21:45;3.25;;;0.98;;
21270;SDS011;10795;50.796;3.860;2022-09-21T12:24:19;3.45;;;0.68;;
21270;SDS011;10795;50.796;3.860;2022-09-21T12:26:49;4.03;;;0.98;;
21270;SDS011;10795;50.796;3.860;2022-09-21T12:29:30;3.72;;;0.90;;
21270;SDS011;10795;50.796;3.860;2022-09-21T12:35:01;1.92;;;0.70;;
21270;SDS011;10795;50.796;3.860;2022-09-21T12:37:34;1.48;;;0.70;;
21270;SDS011;10795;50.796;3.860;2022-09-21T12:45:24;3.20;;;0.50;;
21270;SDS011;10795;50.796;3.860;2022-09-21T12:47:55;2.65;;;0.30;;
21270;SDS011;10795;50.796;3.860;2022-09-21T12:52:58;2.25;;;0.50;;
21270;SDS011;10795;50.796;3.860;2022-09-21T13:04:08;2.45;;;0.68;;
21270;SDS011;10795;50.796;3.860;2022-09-21T13:09:46;3.50;;;0.73;;
21270;SDS011;10795;50.796;3.860;2022-09-21T13:12:14;2.05;;;0.73;;
21270;SDS011;10795;50.796;3.860;2022-09-21T13:14:51;3.38;;;0.88;;
21270;SDS011;10795;50.796;3.860;2022-09-21T13:17:27;3.72;;;0.68;;
21270;SDS011;10795;50.796;3.860;2022-09-21T13:20:02;3.35;;;0.70;;
21270;SDS011;10795;50.796;3.860;2022-09-21T13:22:30;3.78;;;1.27;;
21270;SDS011;10795;50.796;3.860;2022-09-21T13:25:04;3.17;;;0.80;;
21270;SDS011;10795;50.796;3.860;2022-09-21T13:48:59;5.78;;;0.88;;
21270;SDS011;10795;50.796;3.860;2022-09-21T13:51:31;2.45;;;0.57;;
21270;SDS011;10795;50.796;3.860;2022-09-21T13:53:58;3.17;;;0.80;;
21270;SDS011;10795;50.796;3.860;2022-09-21T13:56:26;2.47;;;0.73;;
21270;SDS011;10795;50.796;3.860;2022-09-21T13:58:53;2.38;;;1.00;;
21270;SDS011;10795;50.796;3.860;2022-09-21T14:01:22;1.65;;;0.65;;
21270;SDS011;10795;50.796;3.860;2022-09-21T14:04:00;1.92;;;0.70;;
21270;SDS011;10795;50.796;3.860;2022-09-21T14:06:34;1.88;;;0.60;;
21270;SDS011;10795;50.796;3.860;2022-09-21T14:12:39;2.25;;;0.55;;
21270;SDS011;10795;50.796;3.860;2022-09-21T14:17:40;0.57;;;0.40;;
21270;SDS011;10795;50.796;3.860;2022-09-21T14:20:27;1.77;;;0.60;;
21270;SDS011;10795;50.796;3.860;2022-09-21T14:25:49;3.80;;;0.80;;
21270;SDS011;10795;50.796;3.860;2022-09-21T14:28:19;3.83;;;0.95;;
21270;SDS011;10795;50.796;3.860;2022-09-21T14:31:00;5.90;;;1.00;;
21270;SDS011;10795;50.796;3.860;2022-09-21T14:36:38;4.00;;;0.68;;
21270;SDS011;10795;50.796;3.860;2022-09-21T14:39:21;4.35;;;1.05;;
21270;SDS011;10795;50.796;3.860;2022-09-21T14:41:57;5.03;;;0.93;;
21270;SDS011;10795;50.796;3.860;2022-09-21T14:44:28;2.33;;;0.75;;
21270;SDS011;10795;50.796;3.860;2022-09-21T14:49:52;1.95;;;0.68;;
21270;SDS011;10795;50.796;3.860;2022-09-21T14:52:40;3.83;;;0.80;;
21270;SDS011;10795;50.796;3.860;2022-09-21T14:58:27;3.88;;;1.10;;
21270;SDS011;10795;50.796;3.860;2022-09-21T15:06:46;3.78;;;0.90;;
21270;SDS011;10795;50.796;3.860;2022-09-21T15:15:28;3.78;;;0.60;;
21270;SDS011;10795;50.796;3.860;2022-09-21T15:18:15;2.80;;;0.65;;
21270;SDS011;10795;50.796;3.860;2022-09-21T15:20:52;4.20;;;1.13;;
21270;SDS011;10795;50.796;3.860;2022-09-21T15:23:26;3.65;;;0.77;;
21270;SDS011;10795;50.796;3.860;2022-09-21T15:26:06;2.60;;;0.75;;
21270;SDS011;10795;50.796;3.860;2022-09-21T15:28:35;2.28;;;0.88;;
21270;SDS011;10795;50.796;3.860;2022-09-21T15:31:07;2.88;;;0.68;;
21270;SDS011;10795;50.796;3.860;2022-09-21T15:33:37;2.38;;;1.00;;
21270;SDS011;10795;50.796;3.860;2022-09-21T15:36:03;4.10;;;0.88;;
21270;SDS011;10795;50.796;3.860;2022-09-21T15:38:32;3.00;;;0.70;;
21270;SDS011;10795;50.796;3.860;2022-09-21T15:41:00;2.80;;;0.73;;
21270;SDS011;10795;50.796;3.860;2022-09-21T15:43:26;2.80;;;0.73;;
21270;SDS011;10795;50.796;3.860;2022-09-21T15:45:53;4.25;;;0.90;;
21270;SDS011;10795;50.796;3.860;2022-09-21T15:48:21;3.25;;;0.70;;
21270;SDS011;10795;50.796;3.860;2022-09-21T15:51:17;5.63;;;0.82;;
21270;SDS011;10795;50.796;3.860;2022-09-21T15:53:51;2.55;;;0.60;;
21270;SDS011;10795;50.796;3.860;2022-09-21T15:56:25;2.83;;;0.70;;
21270;SDS011;10795;50.796;3.860;2022-09-21T15:59:02;1.13;;;0.50;;
21270;SDS011;10795;50.796;3.860;2022-09-21T16:01:40;2.08;;;0.65;;
21270;SDS011;10795;50.796;3.860;2022-09-21T16:04:12;3.78;;;0.80;;
21270;SDS011;10795;50.796;3.860;2022-09-21T16:06:41;3.95;;;0.80;;
21270;SDS011;10795;50.796;3.860;2022-09-21T16:11:49;4.32;;;1.50;;
21270;SDS011;10795;50.796;3.860;2022-09-21T16:14:19;6.78;;;1.10;;
21270;SDS011;10795;50.796;3.860;2022-09-21T16:22:10;2.22;;;0.77;;
21270;SDS011;10795;50.796;3.860;2022-09-21T16:27:12;3.35;;;0.90;;
21270;SDS011;10795;50.796;3.860;2022-09-21T16:29:41;2.55;;;0.70;;
21270;SDS011;10795;50.796;3.860;2022-09-21T16:32:20;2.00;;;0.70;;
21270;SDS011;10795;50.796;3.860;2022-09-21T16:34:51;1.90;;;0.60;;
21270;SDS011;10795;50.796;3.860;2022-09-21T16:39:48;3.75;;;0.80;;
21270;SDS011;10795;50.796;3.860;2022-09-21T16:42:15;7.22;;;0.77;;
21270;SDS011;10795;50.796;3.860;2022-09-21T16:44:41;2.30;;;0.85;;
21270;SDS011;10795;50.796;3.860;2022-09-21T16:49:45;1.58;;;0.60;;
21270;SDS011;10795;50.796;3.860;2022-09-21T16:52:11;5.97;;;0.70;;
21270;SDS011;10795;50.796;3.860;2022-09-21T16:54:36;8.57;;;1.10;;
21270;SDS011;10795;50.796;3.860;2022-09-21T16:57:03;3.47;;;0.95;;
21270;SDS011;10795;50.796;3.860;2022-09-21T16:59:30;2.78;;;0.70;;
21270;SDS011;10795;50.796;3.860;2022-09-21T17:01:57;3.08;;;0.88;;
21270;SDS011;10795;50.796;3.860;2022-09-21T17:04:29;5.75;;;0.75;;
21270;SDS011;10795;50.796;3.860;2022-09-21T17:06:57;4.10;;;0.90;;
21270;SDS011;10795;50.796;3.860;2022-09-21T17:09:28;4.00;;;1.00;;
21270;SDS011;10795;50.796;3.860;2022-09-21T17:11:57;2.05;;;0.65;;
21270;SDS011;10795;50.796;3.860;2022-09-21T17:14:28;1.48;;;0.43;;
21270;SDS011;10795;50.796;3.860;2022-09-21T17:16:59;1.85;;;0.40;;
21270;SDS011;10795;50.796;3.860;2022-09-21T17:19:35;2.38;;;0.57;;
21270;SDS011;10795;50.796;3.860;2022-09-21T17:22:01;3.08;;;0.40;;
21270;SDS011;10795;50.796;3.860;2022-09-21T17:24:28;2.03;;;0.80;;
21270;SDS011;10795;50.796;3.860;2022-09-21T17:26:55;1.00;;;0.60;;
21270;SDS011;10795;50.796;3.860;2022-09-21T17:29:25;1.20;;;0.50;;
21270;SDS011;10795;50.796;3.860;2022-09-21T17:31:53;1.45;;;0.50;;
21270;SDS011;10795;50.796;3.860;2022-09-21T17:34:22;1.52;;;0.50;;
21270;SDS011;10795;50.796;3.860;2022-09-21T17:36:52;3.75;;;0.80;;
21270;SDS011;10795;50.796;3.860;2022-09-21T17:39:19;3.80;;;0.95;;
21270;SDS011;10795;50.796;3.860;2022-09-21T17:41:50;2.47;;;0.70;;
21270;SDS011;10795;50.796;3.860;2022-09-21T17:47:26;1.42;;;0.60;;
21270;SDS011;10795;50.796;3.860;2022-09-21T17:50:17;1.77;;;0.93;;
21270;SDS011;10795;50.796;3.860;2022-09-21T17:52:52;3.63;;;0.70;;
21270;SDS011;10795;50.796;3.860;2022-09-21T17:55:38;1.45;;;0.70;;
21270;SDS011;10795;50.796;3.860;2022-09-21T18:01:06;1.58;;;0.52;;
21270;SDS011;10795;50.796;3.860;2022-09-21T18:03:33;2.20;;;0.98;;
21270;SDS011;10795;50.796;3.860;2022-09-21T18:06:05;2.83;;;1.00;;
21270;SDS011;10795;50.796;3.860;2022-09-21T18:08:33;5.45;;;1.15;;
21270;SDS011;10795;50.796;3.860;2022-09-21T18:14:06;3.28;;;1.00;;
21270;SDS011;10795;50.796;3.860;2022-09-21T18:22:13;5.13;;;1.20;;
21270;SDS011;10795;50.796;3.860;2022-09-21T18:24:51;3.70;;;1.45;;
21270;SDS011;10795;50.796;3.860;2022-09-21T18:27:19;2.78;;;1.40;;
21270;SDS011;10795;50.796;3.860;2022-09-21T18:29:47;5.20;;;1.20;;
21270;SDS011;10795;50.796;3.860;2022-09-21T18:32:23;8.52;;;1.50;;
21270;SDS011;10795;50.796;3.860;2022-09-21T18:46:07;4.32;;;1.67;;
21270;SDS011;10795;50.796;3.860;2022-09-21T18:51:29;5.30;;;1.50;;
21270;SDS011;10795;50.796;3.860;2022-09-21T18:54:03;3.63;;;1.75;;
21270;SDS011;10795;50.796;3.860;2022-09-21T18:56:31;4.22;;;1.70;;
21270;SDS011;10795;50.796;3.860;2022-09-21T18:58:59;3.35;;;1.70;;
21270;SDS011;10795;50.796;3.860;2022-09-21T19:01:26;3.35;;;1.70;;
21270;SDS011;10795;50.796;3.860;2022-09-21T19:03:56;6.20;;;1.95;;
21270;SDS011;10795;50.796;3.860;2022-09-21T19:06:38;5.43;;;2.33;;
21270;SDS011;10795;50.796;3.860;2022-09-21T19:12:04;7.10;;;1.80;;
21270;SDS011;10795;50.796;3.860;2022-09-21T19:22:42;5.32;;;3.00;;